Time;durP1;ratioP1;P1;durP2;ratioP2;P2;SDS_P1;SDS_P2;PMS_P1;PMS_P2;Temp;Humidity;BMP_temperature;BMP_pressure;BME280_temperature;BME280_humidity;BME280_pressure;Samples;Min_cycle;Max_cycle;Signal;HPM_P1;HPM_P2
2022/10/09 00:04:15;;;;;;;6.40;2.28;;;;;;;;;;10411214;28;20033;-47
2022/10/09 00:09:17;;;;;;;8.53;2.30;;;;;;;;;;10411325;28;20029;-49
2022/10/09 00:14:17;;;;;;;3.83;2.17;;;;;;;;;;10410669;28;20317;-46
2022/10/09 00:19:17;;;;;;;5.03;2.67;;;;;;;;;;10411421;28;20673;-48
2022/10/09 00:24:18;;;;;;;5.78;1.90;;;;;;;;;;10410581;28;20033;-47
2022/10/09 00:29:18;;;;;;;3.83;2.53;;;;;;;;;;10410399;28;20404;-48
2022/10/09 00:34:18;;;;;;;4.72;2.15;;;;;;;;;;10409823;28;20076;-47
2022/10/09 00:39:18;;;;;;;4.97;2.53;;;;;;;;;;10409640;28;20032;-47
2022/10/09 00:44:38;;;;;;;3.35;2.40;;;;;;;;;;10409261;28;20022;-48
2022/10/09 00:49:38;;;;;;;3.28;2.53;;;;;;;;;;10409740;28;20034;-45
2022/10/09 00:54:40;;;;;;;3.83;2.40;;;;;;;;;;10408744;28;20025;-47
2022/10/09 00:59:40;;;;;;;4.03;2.20;;;;;;;;;;10409420;28;20025;-48
2022/10/09 01:04:41;;;;;;;3.57;2.20;;;;;;;;;;10408824;28;20083;-46
2022/10/09 01:09:45;;;;;;;4.13;2.42;;;;;;;;;;10408779;28;20033;-47
2022/10/09 01:14:55;;;;;;;2.17;1.90;;;;;;;;;;10408367;28;20168;-49
2022/10/09 01:19:56;;;;;;;4.63;2.22;;;;;;;;;;10408459;28;20033;-47
2022/10/09 01:25:23;;;;;;;2.60;2.00;;;;;;;;;;10408877;28;20116;-46
2022/10/09 01:30:23;;;;;;;5.13;2.40;;;;;;;;;;10403893;28;20405;-48
2022/10/09 01:35:24;;;;;;;4.80;2.40;;;;;;;;;;10408834;28;20090;-48
2022/10/09 01:40:25;;;;;;;5.30;2.13;;;;;;;;;;10408522;28;20095;-47
2022/10/09 01:45:34;;;;;;;5.00;2.67;;;;;;;;;;10408442;28;20322;-47
2022/10/09 01:50:38;;;;;;;5.90;2.08;;;;;;;;;;10409029;28;20029;-49
2022/10/09 01:55:56;;;;;;;8.57;2.70;;;;;;;;;;10407535;28;20091;-46
2022/10/09 02:01:02;;;;;;;6.25;2.58;;;;;;;;;;10408322;28;20029;-46
2022/10/09 02:06:03;;;;;;;3.70;2.50;;;;;;;;;;10407740;28;20049;-46
2022/10/09 02:11:04;;;;;;;2.80;2.17;;;;;;;;;;10416176;28;20052;-48
2022/10/09 02:16:14;;;;;;;7.22;2.33;;;;;;;;;;10415553;28;20061;-47
2022/10/09 02:21:15;;;;;;;2.30;1.90;;;;;;;;;;10415910;28;20025;-47
2022/10/09 02:26:16;;;;;;;4.35;2.10;;;;;;;;;;10415042;28;20033;-46
2022/10/09 02:31:21;;;;;;;2.97;2.42;;;;;;;;;;10415841;28;20041;-46
2022/10/09 02:36:22;;;;;;;3.70;1.90;;;;;;;;;;10414732;28;20422;-46
2022/10/09 02:41:22;;;;;;;4.80;2.10;;;;;;;;;;10414359;28;20040;-45
2022/10/09 02:46:23;;;;;;;3.78;2.03;;;;;;;;;;10414030;28;20033;-48
2022/10/09 02:51:23;;;;;;;4.03;2.20;;;;;;;;;;10414157;28;20385;-45
2022/10/09 02:56:24;;;;;;;3.85;2.25;;;;;;;;;;10414381;28;20132;-48
2022/10/09 03:01:24;;;;;;;2.67;2.30;;;;;;;;;;10413487;28;20029;-48
2022/10/09 03:06:25;;;;;;;4.25;2.40;;;;;;;;;;10413487;28;20036;-47
2022/10/09 03:11:25;;;;;;;2.35;1.92;;;;;;;;;;10413317;28;20041;-46
2022/10/09 03:16:26;;;;;;;2.97;2.27;;;;;;;;;;10413233;28;20269;-46
2022/10/09 03:21:26;;;;;;;2.17;1.83;;;;;;;;;;10412874;28;20052;-45
2022/10/09 03:26:27;;;;;;;5.18;2.08;;;;;;;;;;10413694;28;20048;-46
2022/10/09 03:31:27;;;;;;;2.77;2.40;;;;;;;;;;10413877;28;20036;-46
2022/10/09 03:36:27;;;;;;;2.73;2.40;;;;;;;;;;10413210;28;20439;-47
2022/10/09 03:41:28;;;;;;;3.05;2.25;;;;;;;;;;10412474;28;20075;-47
2022/10/09 03:46:28;;;;;;;4.88;2.50;;;;;;;;;;10412366;28;20040;-46
2022/10/09 03:51:28;;;;;;;6.55;2.35;;;;;;;;;;10412513;28;20021;-47
2022/10/09 03:56:28;;;;;;;2.67;2.10;;;;;;;;;;10412349;28;20069;-47
2022/10/09 04:01:29;;;;;;;3.53;2.23;;;;;;;;;;10412250;28;20197;-46
2022/10/09 04:06:29;;;;;;;3.55;2.28;;;;;;;;;;10411441;28;20108;-47
2022/10/09 04:11:29;;;;;;;2.22;2.03;;;;;;;;;;10411201;28;20095;-46
2022/10/09 04:16:29;;;;;;;4.85;2.20;;;;;;;;;;10410926;28;20128;-60
2022/10/09 04:21:31;;;;;;;2.40;2.10;;;;;;;;;;10410880;28;20038;-61
2022/10/09 04:26:31;;;;;;;4.07;1.85;;;;;;;;;;10411138;28;20029;-47
2022/10/09 04:31:32;;;;;;;2.78;2.08;;;;;;;;;;10409952;28;20493;-46
2022/10/09 04:36:32;;;;;;;3.00;2.40;;;;;;;;;;10410525;28;20055;-46
2022/10/09 04:41:32;;;;;;;2.35;2.15;;;;;;;;;;10410274;28;20120;-46
2022/10/09 04:46:32;;;;;;;2.80;2.03;;;;;;;;;;10410013;28;20036;-47
2022/10/09 04:51:33;;;;;;;2.80;1.70;;;;;;;;;;10410389;28;20104;-46
2022/10/09 04:56:33;;;;;;;2.70;2.13;;;;;;;;;;10409593;28;20440;-46
2022/10/09 05:01:33;;;;;;;3.40;2.03;;;;;;;;;;10409490;28;20362;-45
2022/10/09 05:06:34;;;;;;;2.55;2.13;;;;;;;;;;10409705;28;20045;-49
2022/10/09 05:11:34;;;;;;;2.80;2.27;;;;;;;;;;10409129;28;20485;-49
2022/10/09 05:16:34;;;;;;;4.95;2.00;;;;;;;;;;10408943;28;20049;-48
2022/10/09 05:21:35;;;;;;;5.20;2.40;;;;;;;;;;10409018;28;20450;-47
2022/10/09 05:26:36;;;;;;;3.92;2.15;;;;;;;;;;10409425;28;20033;-47
2022/10/09 05:31:36;;;;;;;3.42;2.40;;;;;;;;;;10408621;28;20029;-49
2022/10/09 05:36:37;;;;;;;4.78;2.42;;;;;;;;;;10409679;28;20219;-49
2022/10/09 05:41:37;;;;;;;9.32;2.13;;;;;;;;;;10411524;28;20029;-48
2022/10/09 05:46:37;;;;;;;5.65;2.20;;;;;;;;;;10417140;28;20057;-49
2022/10/09 05:51:38;;;;;;;3.13;2.00;;;;;;;;;;10416756;28;20033;-46
2022/10/09 05:56:39;;;;;;;2.70;2.20;;;;;;;;;;10417211;28;20079;-48
2022/10/09 06:01:40;;;;;;;2.30;2.10;;;;;;;;;;10416815;28;20040;-48
2022/10/09 06:06:40;;;;;;;6.68;2.35;;;;;;;;;;10416159;28;20524;-45
2022/10/09 06:11:41;;;;;;;12.20;3.30;;;;;;;;;;10416358;28;20087;-49
2022/10/09 06:16:42;;;;;;;3.70;2.75;;;;;;;;;;10415287;28;20502;-46
2022/10/09 06:21:43;;;;;;;6.38;2.70;;;;;;;;;;10416005;28;20029;-49
2022/10/09 06:26:44;;;;;;;14.43;3.28;;;;;;;;;;10415822;28;20034;-49
2022/10/09 06:31:44;;;;;;;9.48;2.90;;;;;;;;;;10415247;28;20496;-47
2022/10/09 06:36:44;;;;;;;8.07;2.90;;;;;;;;;;10415418;28;20060;-48
2022/10/09 06:41:44;;;;;;;13.07;3.30;;;;;;;;;;10413995;28;20026;-47
2022/10/09 06:46:47;;;;;;;8.35;3.20;;;;;;;;;;10414430;28;20419;-46
2022/10/09 06:51:47;;;;;;;5.53;2.97;;;;;;;;;;10414166;28;20033;-47
2022/10/09 06:56:48;;;;;;;5.80;2.80;;;;;;;;;;10414279;28;20026;-50
2022/10/09 07:01:48;;;;;;;6.15;2.65;;;;;;;;;;10413960;28;20083;-48
2022/10/09 07:06:48;;;;;;;8.10;2.53;;;;;;;;;;10413891;28;20029;-46
2022/10/09 07:11:49;;;;;;;8.68;2.47;;;;;;;;;;10414048;28;20037;-48
2022/10/09 07:16:50;;;;;;;5.30;2.63;;;;;;;;;;10413260;28;20064;-47
2022/10/09 07:21:51;;;;;;;6.97;2.55;;;;;;;;;;10413283;28;20706;-47
2022/10/09 07:26:54;;;;;;;4.97;2.25;;;;;;;;;;10413110;28;20489;-47
2022/10/09 07:31:54;;;;;;;3.33;2.30;;;;;;;;;;10413321;28;20490;-50
2022/10/09 07:36:55;;;;;;;5.07;2.28;;;;;;;;;;10413922;28;20048;-46
2022/10/09 07:41:55;;;;;;;5.43;2.23;;;;;;;;;;10413013;28;20372;-47
2022/10/09 07:46:55;;;;;;;3.53;2.47;;;;;;;;;;10412313;28;20030;-46
2022/10/09 07:51:55;;;;;;;4.57;2.50;;;;;;;;;;10411977;28;20022;-47
2022/10/09 07:56:56;;;;;;;4.10;2.58;;;;;;;;;;10412475;28;20028;-49
2022/10/09 08:01:56;;;;;;;3.85;2.65;;;;;;;;;;10411889;28;20033;-46
2022/10/09 08:06:57;;;;;;;6.22;2.47;;;;;;;;;;10411617;28;20376;-47
2022/10/09 08:11:57;;;;;;;4.80;2.40;;;;;;;;;;10411499;28;20068;-47
2022/10/09 08:16:57;;;;;;;9.32;2.67;;;;;;;;;;10411549;28;20029;-49
2022/10/09 08:21:58;;;;;;;3.97;2.38;;;;;;;;;;10410717;28;20045;-47
2022/10/09 08:26:58;;;;;;;8.98;3.25;;;;;;;;;;10411169;28;20117;-47
2022/10/09 08:32:09;;;;;;;7.85;2.60;;;;;;;;;;10574669;27;20607;-47
2022/10/09 08:37:09;;;;;;;4.60;2.60;;;;;;;;;;10569937;28;20032;-46
2022/10/09 08:42:18;;;;;;;4.28;2.67;;;;;;;;;;10569659;28;20096;-48
2022/10/09 08:47:25;;;;;;;7.18;2.63;;;;;;;;;;10569906;28;20028;-48
2022/10/09 08:52:37;;;;;;;4.47;2.50;;;;;;;;;;10569249;28;20024;-45
2022/10/09 08:57:38;;;;;;;3.78;2.13;;;;;;;;;;10569659;28;20107;-47
2022/10/09 09:02:44;;;;;;;5.67;3.10;;;;;;;;;;10568951;28;20535;-49
2022/10/09 09:07:59;;;;;;;2.95;2.25;;;;;;;;;;10568733;28;20020;-48
2022/10/09 09:13:26;;;;;;;8.43;2.30;;;;;;;;;;10568595;28;20023;-45
2022/10/09 09:18:45;;;;;;;4.82;2.50;;;;;;;;;;10568172;28;20120;-45
2022/10/09 09:23:46;;;;;;;5.47;2.40;;;;;;;;;;10568647;28;20065;-46
2022/10/09 09:28:49;;;;;;;3.28;2.28;;;;;;;;;;10568025;28;20060;-46
2022/10/09 09:34:10;;;;;;;3.60;2.47;;;;;;;;;;10567864;28;20024;-45
2022/10/09 09:39:11;;;;;;;6.70;2.67;;;;;;;;;;10562792;28;20036;-45
2022/10/09 09:44:12;;;;;;;3.58;2.63;;;;;;;;;;10540339;28;20367;-46
2022/10/09 09:49:16;;;;;;;6.28;2.28;;;;;;;;;;10538973;28;20035;-46
2022/10/09 09:54:23;;;;;;;7.60;2.65;;;;;;;;;;10539410;28;20052;-46
2022/10/09 09:59:24;;;;;;;4.60;2.40;;;;;;;;;;10538741;28;20380;-45
2022/10/09 10:04:27;;;;;;;4.78;2.58;;;;;;;;;;10538964;28;20020;-45
2022/10/09 10:09:27;;;;;;;6.72;3.10;;;;;;;;;;10538727;28;20101;-46
2022/10/09 10:14:28;;;;;;;5.00;2.83;;;;;;;;;;10538600;28;20081;-45
2022/10/09 10:19:29;;;;;;;3.42;2.50;;;;;;;;;;10538542;28;20391;-45
2022/10/09 10:24:31;;;;;;;3.03;2.33;;;;;;;;;;10538189;28;20055;-46
2022/10/09 10:29:40;;;;;;;4.07;2.63;;;;;;;;;;10537529;28;20036;-45
2022/10/09 10:34:40;;;;;;;4.75;2.85;;;;;;;;;;10537367;28;20055;-46
2022/10/09 10:39:44;;;;;;;8.03;2.80;;;;;;;;;;10537774;28;20059;-46
2022/10/09 10:44:58;;;;;;;3.90;2.30;;;;;;;;;;10537396;28;20036;-45
2022/10/09 10:49:58;;;;;;;3.40;2.72;;;;;;;;;;10536721;28;20112;-46
2022/10/09 10:55:08;;;;;;;4.40;2.67;;;;;;;;;;10535467;28;20104;-48
2022/10/09 11:00:09;;;;;;;3.05;2.70;;;;;;;;;;10536400;28;20024;-48
2022/10/09 11:05:28;;;;;;;7.22;2.70;;;;;;;;;;10536549;28;20020;-46
2022/10/09 11:10:35;;;;;;;3.83;2.90;;;;;;;;;;10536155;28;20089;-46
2022/10/09 11:15:44;;;;;;;7.35;3.20;;;;;;;;;;10535494;28;20515;-47
2022/10/09 11:21:00;;;;;;;5.00;2.92;;;;;;;;;;10535553;28;20520;-46
2022/10/09 11:26:06;;;;;;;3.88;2.70;;;;;;;;;;10535501;28;20020;-46
2022/10/09 11:31:12;;;;;;;6.88;3.13;;;;;;;;;;10534844;28;20064;-46
2022/10/09 11:36:25;;;;;;;3.90;2.75;;;;;;;;;;10534972;28;20032;-45
2022/10/09 11:41:26;;;;;;;4.03;2.83;;;;;;;;;;10534881;28;20028;-46
2022/10/09 11:46:26;;;;;;;5.10;3.35;;;;;;;;;;10534445;28;20085;-44
2022/10/09 11:51:35;;;;;;;4.30;3.05;;;;;;;;;;10534758;28;20028;-45
2022/10/09 11:56:36;;;;;;;4.40;2.92;;;;;;;;;;10534267;28;20056;-45
2022/10/09 12:01:38;;;;;;;3.60;2.63;;;;;;;;;;10534525;28;20055;-47
2022/10/09 12:06:49;;;;;;;2.75;2.55;;;;;;;;;;10534306;28;20468;-46
2022/10/09 12:11:58;;;;;;;4.30;2.95;;;;;;;;;;10534104;28;20533;-46
2022/10/09 12:16:58;;;;;;;;;;;;;;;;;;10534632;28;20122;-46
2022/10/09 12:22:17;;;;;;;5.53;3.05;;;;;;;;;;10534416;28;19916;-46
2022/10/09 12:27:22;;;;;;;5.55;2.72;;;;;;;;;;10533134;28;20471;-50
2022/10/09 12:32:28;;;;;;;3.83;2.60;;;;;;;;;;10533226;28;20106;-45
2022/10/09 12:37:33;;;;;;;5.72;2.90;;;;;;;;;;10533178;28;20443;-50
2022/10/09 12:42:33;;;;;;;4.93;3.28;;;;;;;;;;10533722;28;20178;-45
2022/10/09 12:47:34;;;;;;;3.83;3.03;;;;;;;;;;10532956;28;20173;-46
2022/10/09 12:52:34;;;;;;;3.73;2.87;;;;;;;;;;10532847;28;20115;-46
2022/10/09 12:57:34;;;;;;;5.03;2.67;;;;;;;;;;10532812;28;20043;-48
2022/10/09 13:02:35;;;;;;;5.23;2.60;;;;;;;;;;10533194;28;20039;-45
2022/10/09 13:07:35;;;;;;;4.25;3.10;;;;;;;;;;10532556;28;20028;-45
2022/10/09 13:12:36;;;;;;;3.95;3.22;;;;;;;;;;10532578;28;20100;-46
2022/10/09 13:17:38;;;;;;;5.75;3.33;;;;;;;;;;10538218;28;20145;-47
2022/10/09 13:22:38;;;;;;;9.93;3.40;;;;;;;;;;10541166;28;20020;-45
2022/10/09 13:27:38;;;;;;;4.03;3.00;;;;;;;;;;10539809;28;20101;-47
2022/10/09 13:32:39;;;;;;;6.75;3.25;;;;;;;;;;10540319;28;20024;-45
2022/10/09 13:37:39;;;;;;;3.95;2.80;;;;;;;;;;10540418;28;20060;-46
2022/10/09 13:42:40;;;;;;;6.85;3.45;;;;;;;;;;10539609;28;20024;-45
2022/10/09 13:47:40;;;;;;;8.13;3.42;;;;;;;;;;10539652;28;20382;-49
2022/10/09 13:52:41;;;;;;;4.38;3.20;;;;;;;;;;10538939;28;20111;-45
2022/10/09 13:57:41;;;;;;;5.03;3.45;;;;;;;;;;10538882;28;20028;-45
2022/10/09 14:02:42;;;;;;;4.57;3.40;;;;;;;;;;10539145;28;20032;-46
2022/10/09 14:07:42;;;;;;;3.87;3.27;;;;;;;;;;10538916;28;20054;-46
2022/10/09 14:12:42;;;;;;;3.95;3.50;;;;;;;;;;10538723;28;20135;-45
2022/10/09 14:17:42;;;;;;;6.20;3.65;;;;;;;;;;10538136;28;20082;-45
2022/10/09 14:22:43;;;;;;;3.85;2.70;;;;;;;;;;10538196;28;20023;-46
2022/10/09 14:27:43;;;;;;;5.55;3.47;;;;;;;;;;10537701;28;20054;-45
2022/10/09 14:32:43;;;;;;;5.15;3.60;;;;;;;;;;10537309;28;20028;-46
2022/10/09 14:37:44;;;;;;;4.70;3.17;;;;;;;;;;10537756;28;20165;-45
2022/10/09 14:42:44;;;;;;;5.20;3.25;;;;;;;;;;10537127;28;20368;-46
2022/10/09 14:47:44;;;;;;;5.07;3.40;;;;;;;;;;10536725;28;20060;-47
2022/10/09 14:52:44;;;;;;;4.95;3.83;;;;;;;;;;10535354;28;20024;-45
2022/10/09 14:57:45;;;;;;;2.97;2.78;;;;;;;;;;10537019;28;20028;-50
2022/10/09 15:02:45;;;;;;;9.03;3.43;;;;;;;;;;10536276;28;20020;-46
2022/10/09 15:07:45;;;;;;;4.80;3.15;;;;;;;;;;10536069;28;20478;-47
2022/10/09 15:12:45;;;;;;;3.67;2.90;;;;;;;;;;10535960;28;20027;-46
2022/10/09 15:17:46;;;;;;;3.73;3.30;;;;;;;;;;10536260;28;20111;-46
2022/10/09 15:22:46;;;;;;;4.90;3.25;;;;;;;;;;10535350;28;20116;-45
2022/10/09 15:27:46;;;;;;;6.53;3.38;;;;;;;;;;10534793;28;20048;-45
2022/10/09 15:32:47;;;;;;;3.28;2.90;;;;;;;;;;10534623;28;20119;-46
2022/10/09 15:37:47;;;;;;;5.68;3.53;;;;;;;;;;10534656;28;20088;-46
2022/10/09 15:42:47;;;;;;;3.55;3.25;;;;;;;;;;10534894;28;20456;-45
2022/10/09 15:47:48;;;;;;;4.75;3.50;;;;;;;;;;10534344;28;20024;-45
2022/10/09 15:52:48;;;;;;;4.05;3.33;;;;;;;;;;10534424;28;20054;-45
2022/10/09 15:57:48;;;;;;;5.10;3.30;;;;;;;;;;10534186;28;20024;-45
2022/10/09 16:02:48;;;;;;;6.07;3.58;;;;;;;;;;10534532;28;20581;-45
2022/10/09 16:07:49;;;;;;;5.50;3.55;;;;;;;;;;10534191;28;20379;-45
2022/10/09 16:12:49;;;;;;;13.27;4.13;;;;;;;;;;10533282;28;20379;-46
2022/10/09 16:17:50;;;;;;;16.20;3.92;;;;;;;;;;10533652;28;20418;-46
2022/10/09 16:22:50;;;;;;;10.70;3.88;;;;;;;;;;10533783;28;20097;-46
2022/10/09 16:27:50;;;;;;;17.40;4.37;;;;;;;;;;10533532;28;20135;-46
2022/10/09 16:32:51;;;;;;;7.95;3.78;;;;;;;;;;10533190;28;20772;-44
2022/10/09 16:37:51;;;;;;;7.87;3.87;;;;;;;;;;10533348;28;20378;-48
2022/10/09 16:42:51;;;;;;;6.68;4.03;;;;;;;;;;10531677;28;20605;-45
2022/10/09 16:47:54;;;;;;;6.07;3.58;;;;;;;;;;10532952;28;20038;-45
2022/10/09 16:52:55;;;;;;;9.18;3.70;;;;;;;;;;10539828;28;20028;-47
2022/10/09 16:57:55;;;;;;;5.53;3.40;;;;;;;;;;10540984;28;20173;-45
2022/10/09 17:02:55;;;;;;;6.65;3.58;;;;;;;;;;10541303;28;20085;-46
2022/10/09 17:07:56;;;;;;;5.45;3.60;;;;;;;;;;10540250;28;20410;-45
2022/10/09 17:12:56;;;;;;;5.38;3.70;;;;;;;;;;10541024;28;20028;-44
2022/10/09 17:17:56;;;;;;;4.65;3.28;;;;;;;;;;10540486;28;20024;-45
2022/10/09 17:22:56;;;;;;;3.88;3.17;;;;;;;;;;10540178;28;20028;-45
2022/10/09 17:27:57;;;;;;;4.80;3.22;;;;;;;;;;10539643;28;20539;-45
2022/10/09 17:32:57;;;;;;;6.47;3.60;;;;;;;;;;10540215;28;20036;-45
2022/10/09 17:37:57;;;;;;;5.77;3.30;;;;;;;;;;10539741;28;20110;-46
2022/10/09 17:42:58;;;;;;;6.03;3.30;;;;;;;;;;10539453;28;20058;-44
2022/10/09 17:47:58;;;;;;;5.13;3.15;;;;;;;;;;10539522;28;20425;-49
2022/10/09 17:52:58;;;;;;;5.93;3.63;;;;;;;;;;10539423;28;20463;-46
2022/10/09 17:57:59;;;;;;;6.82;3.92;;;;;;;;;;10538477;28;20467;-47
2022/10/09 18:02:59;;;;;;;8.15;4.05;;;;;;;;;;10538410;28;20107;-46
2022/10/09 18:07:59;;;;;;;12.68;4.63;;;;;;;;;;10537937;28;20028;-44
2022/10/09 18:13:00;;;;;;;7.23;4.83;;;;;;;;;;10538179;28;20024;-46
2022/10/09 18:18:00;;;;;;;8.73;5.07;;;;;;;;;;10538578;28;20085;-44
2022/10/09 18:23:00;;;;;;;8.70;5.50;;;;;;;;;;10537832;28;20440;-44
2022/10/09 18:28:01;;;;;;;12.73;5.13;;;;;;;;;;10537864;28;20044;-45
2022/10/09 18:33:01;;;;;;;15.10;5.32;;;;;;;;;;10537399;28;20024;-45
2022/10/09 18:38:01;;;;;;;7.63;4.97;;;;;;;;;;10537190;28;20024;-44
2022/10/09 18:43:02;;;;;;;6.77;4.90;;;;;;;;;;10537076;28;20048;-45
2022/10/09 18:48:02;;;;;;;6.65;4.57;;;;;;;;;;10536614;28;20028;-46
2022/10/09 18:53:03;;;;;;;7.20;4.70;;;;;;;;;;10536854;28;20028;-44
2022/10/09 18:58:03;;;;;;;8.85;4.10;;;;;;;;;;10536540;28;20506;-45
2022/10/09 19:03:04;;;;;;;5.28;3.58;;;;;;;;;;10535913;28;20027;-45
2022/10/09 19:08:04;;;;;;;11.52;4.25;;;;;;;;;;10535877;28;20028;-47
2022/10/09 19:13:04;;;;;;;12.45;3.95;;;;;;;;;;10535254;28;20032;-44
2022/10/09 19:18:05;;;;;;;7.50;4.10;;;;;;;;;;10535986;28;20036;-50
2022/10/09 19:23:05;;;;;;;7.47;4.03;;;;;;;;;;10535180;28;20024;-45
2022/10/09 19:28:05;;;;;;;8.50;3.60;;;;;;;;;;10534165;28;20051;-46
2022/10/09 19:33:05;;;;;;;8.18;3.80;;;;;;;;;;10534962;28;20028;-45
2022/10/09 19:38:06;;;;;;;11.02;4.28;;;;;;;;;;10528057;28;20077;-47
2022/10/09 19:43:06;;;;;;;21.52;4.10;;;;;;;;;;10533987;28;20020;-49
2022/10/09 19:48:07;;;;;;;23.17;4.67;;;;;;;;;;10533304;28;20082;-47
2022/10/09 19:53:08;;;;;;;41.15;4.05;;;;;;;;;;10533592;28;20425;-46
2022/10/09 19:58:08;;;;;;;36.20;4.57;;;;;;;;;;10529650;28;20032;-48
2022/10/09 20:03:08;;;;;;;35.63;5.17;;;;;;;;;;10530184;28;20023;-46
2022/10/09 20:08:09;;;;;;;12.27;3.60;;;;;;;;;;10532833;28;20027;-48
2022/10/09 20:13:09;;;;;;;28.10;4.70;;;;;;;;;;10532820;28;20531;-49
2022/10/09 20:18:09;;;;;;;22.25;3.63;;;;;;;;;;10532121;28;20032;-46
2022/10/09 20:23:10;;;;;;;21.80;3.53;;;;;;;;;;10533316;28;20067;-49
2022/10/09 20:28:10;;;;;;;9.57;3.60;;;;;;;;;;10531155;28;20040;-47
2022/10/09 20:33:10;;;;;;;18.10;3.57;;;;;;;;;;10531311;28;20059;-47
2022/10/09 20:38:10;;;;;;;16.88;3.85;;;;;;;;;;10532817;28;20052;-49
2022/10/09 20:43:12;;;;;;;13.13;3.92;;;;;;;;;;10531156;28;20032;-50
2022/10/09 20:48:12;;;;;;;5.13;2.70;;;;;;;;;;10531754;28;20413;-54
2022/10/09 20:53:12;;;;;;;11.53;3.20;;;;;;;;;;10531100;28;20076;-52
2022/10/09 20:58:13;;;;;;;8.80;3.85;;;;;;;;;;10532485;28;20115;-48
2022/10/09 21:03:13;;;;;;;6.72;3.00;;;;;;;;;;10533011;28;20032;-50
2022/10/09 21:08:13;;;;;;;9.77;2.80;;;;;;;;;;10533122;28;20034;-46
2022/10/09 21:13:14;;;;;;;10.30;3.22;;;;;;;;;;10532396;28;20032;-47
2022/10/09 21:18:15;;;;;;;9.85;3.25;;;;;;;;;;10532002;28;20028;-49
2022/10/09 21:23:17;;;;;;;7.22;3.25;;;;;;;;;;10531806;28;20024;-47
2022/10/09 21:28:18;;;;;;;12.57;3.40;;;;;;;;;;10531952;28;20048;-46
2022/10/09 21:33:18;;;;;;;8.30;2.63;;;;;;;;;;10532374;28;20046;-47
2022/10/09 21:38:20;;;;;;;8.82;2.90;;;;;;;;;;10537203;28;20458;-47
2022/10/09 21:43:20;;;;;;;7.10;2.75;;;;;;;;;;10540591;28;20051;-47
2022/10/09 21:48:20;;;;;;;8.00;2.78;;;;;;;;;;10538822;28;20048;-47
2022/10/09 21:53:21;;;;;;;5.50;2.60;;;;;;;;;;10539507;28;20028;-46
2022/10/09 21:58:21;;;;;;;10.75;2.90;;;;;;;;;;10538895;28;20039;-48
2022/10/09 22:03:22;;;;;;;5.88;2.70;;;;;;;;;;10538512;28;20399;-50
2022/10/09 22:08:23;;;;;;;9.35;3.40;;;;;;;;;;10538471;28;20092;-47
2022/10/09 22:13:24;;;;;;;12.10;2.65;;;;;;;;;;10539258;28;20039;-50
2022/10/09 22:18:24;;;;;;;6.50;3.07;;;;;;;;;;10538430;28;20567;-49
2022/10/09 22:23:24;;;;;;;5.13;2.70;;;;;;;;;;10537728;28;20388;-47
2022/10/09 22:28:24;;;;;;;6.47;2.17;;;;;;;;;;10537359;28;20082;-49
2022/10/09 22:33:25;;;;;;;5.45;2.50;;;;;;;;;;10537819;28;20040;-47
2022/10/09 22:38:25;;;;;;;4.40;2.30;;;;;;;;;;10537254;28;20386;-46
2022/10/09 22:43:25;;;;;;;6.53;2.20;;;;;;;;;;10537018;28;20027;-47
2022/10/09 22:48:25;;;;;;;3.55;2.28;;;;;;;;;;10536760;28;20031;-46
2022/10/09 22:53:26;;;;;;;9.48;2.67;;;;;;;;;;10537029;28;20028;-48
2022/10/09 22:58:26;;;;;;;5.80;2.95;;;;;;;;;;10536842;28;20028;-47
2022/10/09 23:03:26;;;;;;;3.63;2.38;;;;;;;;;;10536235;28;20035;-47
2022/10/09 23:08:26;;;;;;;3.80;2.35;;;;;;;;;;10535926;28;20028;-45
2022/10/09 23:13:27;;;;;;;10.25;2.95;;;;;;;;;;10536198;28;20031;-46
2022/10/09 23:18:28;;;;;;;16.40;3.03;;;;;;;;;;10535677;28;20035;-48
2022/10/09 23:23:30;;;;;;;4.07;2.20;;;;;;;;;;10536057;28;20031;-49
2022/10/09 23:28:30;;;;;;;10.73;2.88;;;;;;;;;;10535000;28;20495;-46
2022/10/09 23:33:31;;;;;;;4.50;2.67;;;;;;;;;;10535569;28;20024;-47
2022/10/09 23:38:31;;;;;;;4.72;2.45;;;;;;;;;;10534806;28;20261;-47
2022/10/09 23:43:32;;;;;;;3.97;2.10;;;;;;;;;;10534863;28;20031;-48
2022/10/09 23:48:33;;;;;;;5.47;2.47;;;;;;;;;;10534652;28;20032;-48
2022/10/09 23:53:33;;;;;;;6.72;2.80;;;;;;;;;;10534790;28;20028;-47
2022/10/09 23:58:34;;;;;;;5.20;2.75;;;;;;;;;;10533722;28;20047;-46
